sensor_id;sensor_type;location;lat;lon;timestamp;P1;durP1;ratioP1;P2;durP2;ratioP2
23472;SDS011;11909;52.516;13.564;2024-01-10T00:02:20;84.35;;;35.83;;
23472;SDS011;11909;52.516;13.564;2024-01-10T00:04:48;76.15;;;35.60;;
23472;SDS011;11909;52.516;13.564;2024-01-10T00:07:16;81.32;;;36.20;;
23472;SDS011;11909;52.516;13.564;2024-01-10T00:09:46;79.35;;;35.70;;
23472;SDS011;11909;52.516;13.564;2024-01-10T00:12:14;77.30;;;35.88;;
23472;SDS011;11909;52.516;13.564;2024-01-10T00:14:42;86.30;;;35.67;;
23472;SDS011;11909;52.516;13.564;2024-01-10T00:17:10;85.47;;;36.60;;
23472;SDS011;11909;52.516;13.564;2024-01-10T00:19:38;85.20;;;36.58;;
23472;SDS011;11909;52.516;13.564;2024-01-10T00:22:06;79.88;;;35.70;;
23472;SDS011;11909;52.516;13.564;2024-01-10T00:24:34;82.60;;;35.60;;
23472;SDS011;11909;52.516;13.564;2024-01-10T00:27:04;83.35;;;37.42;;
23472;SDS011;11909;52.516;13.564;2024-01-10T00:29:32;81.25;;;36.63;;
23472;SDS011;11909;52.516;13.564;2024-01-10T00:32:00;77.20;;;37.05;;
23472;SDS011;11909;52.516;13.564;2024-01-10T00:34:28;77.78;;;37.20;;
23472;SDS011;11909;52.516;13.564;2024-01-10T00:36:55;74.30;;;34.83;;
23472;SDS011;11909;52.516;13.564;2024-01-10T00:39:23;84.30;;;36.45;;
23472;SDS011;11909;52.516;13.564;2024-01-10T00:41:51;83.35;;;37.78;;
23472;SDS011;11909;52.516;13.564;2024-01-10T00:44:20;80.07;;;36.55;;
23472;SDS011;11909;52.516;13.564;2024-01-10T00:46:49;82.63;;;36.60;;
23472;SDS011;11909;52.516;13.564;2024-01-10T00:49:17;80.32;;;36.92;;
23472;SDS011;11909;52.516;13.564;2024-01-10T00:51:45;85.07;;;37.17;;
23472;SDS011;11909;52.516;13.564;2024-01-10T00:54:13;80.43;;;36.63;;
23472;SDS011;11909;52.516;13.564;2024-01-10T00:56:40;86.32;;;35.20;;
23472;SDS011;11909;52.516;13.564;2024-01-10T00:59:08;88.28;;;37.95;;
23472;SDS011;11909;52.516;13.564;2024-01-10T01:01:38;79.53;;;36.58;;
23472;SDS011;11909;52.516;13.564;2024-01-10T01:04:06;66.68;;;28.60;;
23472;SDS011;11909;52.516;13.564;2024-01-10T01:06:33;83.93;;;36.85;;
23472;SDS011;11909;52.516;13.564;2024-01-10T01:09:01;87.15;;;37.72;;
23472;SDS011;11909;52.516;13.564;2024-01-10T01:11:29;85.50;;;37.05;;
23472;SDS011;11909;52.516;13.564;2024-01-10T01:13:57;86.53;;;36.10;;
23472;SDS011;11909;52.516;13.564;2024-01-10T01:16:25;90.35;;;37.22;;
23472;SDS011;11909;52.516;13.564;2024-01-10T01:18:54;77.82;;;36.55;;
23472;SDS011;11909;52.516;13.564;2024-01-10T01:21:22;80.13;;;36.83;;
23472;SDS011;11909;52.516;13.564;2024-01-10T01:23:50;80.43;;;36.72;;
23472;SDS011;11909;52.516;13.564;2024-01-10T01:26:18;81.90;;;36.55;;
23472;SDS011;11909;52.516;13.564;2024-01-10T01:28:46;86.10;;;36.95;;
23472;SDS011;11909;52.516;13.564;2024-01-10T01:31:14;83.25;;;36.78;;
23472;SDS011;11909;52.516;13.564;2024-01-10T01:33:42;86.72;;;37.85;;
23472;SDS011;11909;52.516;13.564;2024-01-10T01:36:11;83.80;;;38.33;;
23472;SDS011;11909;52.516;13.564;2024-01-10T01:38:39;90.90;;;37.50;;
23472;SDS011;11909;52.516;13.564;2024-01-10T01:41:07;85.88;;;37.67;;
23472;SDS011;11909;52.516;13.564;2024-01-10T01:43:35;86.95;;;38.83;;
23472;SDS011;11909;52.516;13.564;2024-01-10T01:46:03;89.03;;;38.03;;
23472;SDS011;11909;52.516;13.564;2024-01-10T01:48:31;85.65;;;37.58;;
23472;SDS011;11909;52.516;13.564;2024-01-10T01:51:00;88.18;;;38.40;;
23472;SDS011;11909;52.516;13.564;2024-01-10T01:53:32;91.68;;;38.30;;
23472;SDS011;11909;52.516;13.564;2024-01-10T01:56:02;83.53;;;36.63;;
23472;SDS011;11909;52.516;13.564;2024-01-10T01:58:34;80.57;;;38.25;;
23472;SDS011;11909;52.516;13.564;2024-01-10T02:01:03;89.25;;;39.55;;
23472;SDS011;11909;52.516;13.564;2024-01-10T02:03:32;65.53;;;28.48;;
23472;SDS011;11909;52.516;13.564;2024-01-10T02:06:01;84.15;;;37.13;;
23472;SDS011;11909;52.516;13.564;2024-01-10T02:08:32;84.28;;;36.58;;
23472;SDS011;11909;52.516;13.564;2024-01-10T02:11:02;94.70;;;39.85;;
23472;SDS011;11909;52.516;13.564;2024-01-10T02:13:31;66.07;;;29.57;;
23472;SDS011;11909;52.516;13.564;2024-01-10T02:15:59;84.75;;;37.72;;
23472;SDS011;11909;52.516;13.564;2024-01-10T02:18:27;92.88;;;38.72;;
23472;SDS011;11909;52.516;13.564;2024-01-10T02:20:55;85.30;;;38.58;;
23472;SDS011;11909;52.516;13.564;2024-01-10T02:23:24;86.38;;;38.30;;
23472;SDS011;11909;52.516;13.564;2024-01-10T02:25:53;89.75;;;39.13;;
23472;SDS011;11909;52.516;13.564;2024-01-10T02:28:21;86.25;;;38.20;;
23472;SDS011;11909;52.516;13.564;2024-01-10T02:30:49;92.78;;;38.85;;
23472;SDS011;11909;52.516;13.564;2024-01-10T02:33:18;80.87;;;37.63;;
23472;SDS011;11909;52.516;13.564;2024-01-10T02:35:46;90.65;;;39.28;;
23472;SDS011;11909;52.516;13.564;2024-01-10T02:38:14;92.10;;;39.42;;
23472;SDS011;11909;52.516;13.564;2024-01-10T02:40:42;80.32;;;37.17;;
23472;SDS011;11909;52.516;13.564;2024-01-10T02:43:11;87.22;;;40.05;;
23472;SDS011;11909;52.516;13.564;2024-01-10T02:45:39;68.40;;;28.95;;
23472;SDS011;11909;52.516;13.564;2024-01-10T02:48:07;83.68;;;37.78;;
23472;SDS011;11909;52.516;13.564;2024-01-10T02:50:35;90.60;;;40.33;;
23472;SDS011;11909;52.516;13.564;2024-01-10T02:53:04;79.63;;;36.63;;
23472;SDS011;11909;52.516;13.564;2024-01-10T02:55:33;92.70;;;39.65;;
23472;SDS011;11909;52.516;13.564;2024-01-10T02:58:00;84.75;;;37.78;;
23472;SDS011;11909;52.516;13.564;2024-01-10T03:00:29;86.85;;;39.42;;
23472;SDS011;11909;52.516;13.564;2024-01-10T03:02:58;85.97;;;38.72;;
23472;SDS011;11909;52.516;13.564;2024-01-10T03:05:26;80.72;;;37.58;;
23472;SDS011;11909;52.516;13.564;2024-01-10T03:07:54;92.45;;;38.95;;
23472;SDS011;11909;52.516;13.564;2024-01-10T03:10:22;82.53;;;38.75;;
23472;SDS011;11909;52.516;13.564;2024-01-10T03:12:51;82.88;;;37.40;;
23472;SDS011;11909;52.516;13.564;2024-01-10T03:15:19;87.17;;;39.17;;
23472;SDS011;11909;52.516;13.564;2024-01-10T03:17:48;82.80;;;37.13;;
23472;SDS011;11909;52.516;13.564;2024-01-10T03:20:16;87.77;;;38.53;;
23472;SDS011;11909;52.516;13.564;2024-01-10T03:22:44;86.10;;;38.83;;
23472;SDS011;11909;52.516;13.564;2024-01-10T03:25:12;91.72;;;39.50;;
23472;SDS011;11909;52.516;13.564;2024-01-10T03:27:40;85.85;;;37.30;;
23472;SDS011;11909;52.516;13.564;2024-01-10T03:30:08;90.93;;;38.92;;
23472;SDS011;11909;52.516;13.564;2024-01-10T03:32:37;69.00;;;29.65;;
23472;SDS011;11909;52.516;13.564;2024-01-10T03:35:08;85.45;;;39.03;;
23472;SDS011;11909;52.516;13.564;2024-01-10T03:37:36;83.75;;;38.72;;
23472;SDS011;11909;52.516;13.564;2024-01-10T03:40:05;95.55;;;39.42;;
23472;SDS011;11909;52.516;13.564;2024-01-10T03:42:33;90.25;;;38.85;;
23472;SDS011;11909;52.516;13.564;2024-01-10T03:45:01;95.07;;;40.50;;
23472;SDS011;11909;52.516;13.564;2024-01-10T03:47:30;89.70;;;40.65;;
23472;SDS011;11909;52.516;13.564;2024-01-10T03:49:58;91.97;;;39.85;;
23472;SDS011;11909;52.516;13.564;2024-01-10T03:52:27;101.45;;;41.58;;
23472;SDS011;11909;52.516;13.564;2024-01-10T03:54:55;88.13;;;40.72;;
23472;SDS011;11909;52.516;13.564;2024-01-10T03:57:24;85.57;;;38.90;;
23472;SDS011;11909;52.516;13.564;2024-01-10T03:59:51;89.88;;;39.22;;
23472;SDS011;11909;52.516;13.564;2024-01-10T04:02:19;87.53;;;37.92;;
23472;SDS011;11909;52.516;13.564;2024-01-10T04:04:47;96.60;;;38.85;;
23472;SDS011;11909;52.516;13.564;2024-01-10T04:07:16;92.25;;;39.17;;
23472;SDS011;11909;52.516;13.564;2024-01-10T04:09:45;94.82;;;39.40;;
23472;SDS011;11909;52.516;13.564;2024-01-10T04:12:13;93.43;;;39.80;;
23472;SDS011;11909;52.516;13.564;2024-01-10T04:14:41;90.10;;;37.58;;
23472;SDS011;11909;52.516;13.564;2024-01-10T04:17:09;83.55;;;36.88;;
23472;SDS011;11909;52.516;13.564;2024-01-10T04:19:37;89.50;;;38.83;;
23472;SDS011;11909;52.516;13.564;2024-01-10T04:22:05;89.25;;;39.78;;
23472;SDS011;11909;52.516;13.564;2024-01-10T04:24:33;93.10;;;38.60;;
23472;SDS011;11909;52.516;13.564;2024-01-10T04:27:02;87.32;;;38.00;;
23472;SDS011;11909;52.516;13.564;2024-01-10T04:29:32;87.40;;;38.70;;
23472;SDS011;11909;52.516;13.564;2024-01-10T04:32:00;86.82;;;37.72;;
23472;SDS011;11909;52.516;13.564;2024-01-10T04:34:28;85.22;;;37.92;;
23472;SDS011;11909;52.516;13.564;2024-01-10T04:36:56;78.63;;;36.10;;
23472;SDS011;11909;52.516;13.564;2024-01-10T04:39:24;81.70;;;35.85;;
23472;SDS011;11909;52.516;13.564;2024-01-10T04:41:51;90.45;;;38.80;;
23472;SDS011;11909;52.516;13.564;2024-01-10T04:44:21;80.57;;;36.03;;
23472;SDS011;11909;52.516;13.564;2024-01-10T04:46:49;60.40;;;28.38;;
23472;SDS011;11909;52.516;13.564;2024-01-10T04:49:17;91.10;;;38.50;;
23472;SDS011;11909;52.516;13.564;2024-01-10T04:51:44;86.60;;;38.58;;
23472;SDS011;11909;52.516;13.564;2024-01-10T04:54:14;85.90;;;38.55;;
23472;SDS011;11909;52.516;13.564;2024-01-10T04:56:41;86.55;;;37.63;;
23472;SDS011;11909;52.516;13.564;2024-01-10T04:59:09;87.05;;;37.33;;
23472;SDS011;11909;52.516;13.564;2024-01-10T05:01:39;86.88;;;38.00;;
23472;SDS011;11909;52.516;13.564;2024-01-10T05:04:07;79.00;;;30.17;;
23472;SDS011;11909;52.516;13.564;2024-01-10T05:06:34;84.53;;;37.17;;
23472;SDS011;11909;52.516;13.564;2024-01-10T05:09:03;83.10;;;37.80;;
23472;SDS011;11909;52.516;13.564;2024-01-10T05:11:30;90.85;;;39.33;;
23472;SDS011;11909;52.516;13.564;2024-01-10T05:13:58;92.03;;;39.78;;
23472;SDS011;11909;52.516;13.564;2024-01-10T05:16:26;94.55;;;40.08;;
23472;SDS011;11909;52.516;13.564;2024-01-10T05:18:55;88.55;;;38.08;;
23472;SDS011;11909;52.516;13.564;2024-01-10T05:21:24;87.72;;;38.47;;
23472;SDS011;11909;52.516;13.564;2024-01-10T05:23:53;85.53;;;39.33;;
23472;SDS011;11909;52.516;13.564;2024-01-10T05:26:21;93.50;;;40.40;;
23472;SDS011;11909;52.516;13.564;2024-01-10T05:28:49;93.13;;;40.08;;
23472;SDS011;11909;52.516;13.564;2024-01-10T05:31:17;96.03;;;39.60;;
23472;SDS011;11909;52.516;13.564;2024-01-10T05:33:45;90.07;;;39.33;;
23472;SDS011;11909;52.516;13.564;2024-01-10T05:36:14;87.88;;;40.05;;
23472;SDS011;11909;52.516;13.564;2024-01-10T05:38:42;92.28;;;38.72;;
23472;SDS011;11909;52.516;13.564;2024-01-10T05:41:09;95.03;;;41.42;;
23472;SDS011;11909;52.516;13.564;2024-01-10T05:43:37;98.43;;;41.85;;
23472;SDS011;11909;52.516;13.564;2024-01-10T05:46:06;90.63;;;40.35;;
23472;SDS011;11909;52.516;13.564;2024-01-10T05:48:33;103.00;;;42.67;;
23472;SDS011;11909;52.516;13.564;2024-01-10T05:51:01;101.55;;;43.25;;
23472;SDS011;11909;52.516;13.564;2024-01-10T05:53:31;95.30;;;42.15;;
23472;SDS011;11909;52.516;13.564;2024-01-10T05:55:59;103.65;;;43.55;;
23472;SDS011;11909;52.516;13.564;2024-01-10T05:58:27;95.03;;;42.22;;
23472;SDS011;11909;52.516;13.564;2024-01-10T06:00:55;104.70;;;41.67;;
23472;SDS011;11909;52.516;13.564;2024-01-10T06:03:23;92.75;;;42.03;;
23472;SDS011;11909;52.516;13.564;2024-01-10T06:05:51;94.88;;;42.50;;
23472;SDS011;11909;52.516;13.564;2024-01-10T06:08:19;98.95;;;43.13;;
23472;SDS011;11909;52.516;13.564;2024-01-10T06:10:48;96.07;;;42.38;;
23472;SDS011;11909;52.516;13.564;2024-01-10T06:15:45;88.07;;;37.92;;
23472;SDS011;11909;52.516;13.564;2024-01-10T06:18:13;98.18;;;42.70;;
23472;SDS011;11909;52.516;13.564;2024-01-10T06:20:41;96.68;;;41.90;;
23472;SDS011;11909;52.516;13.564;2024-01-10T06:23:09;96.22;;;42.00;;
23472;SDS011;11909;52.516;13.564;2024-01-10T06:25:37;103.38;;;44.58;;
23472;SDS011;11909;52.516;13.564;2024-01-10T06:28:06;106.95;;;42.78;;
23472;SDS011;11909;52.516;13.564;2024-01-10T06:30:34;118.25;;;44.70;;
23472;SDS011;11909;52.516;13.564;2024-01-10T06:33:02;104.97;;;41.65;;
23472;SDS011;11909;52.516;13.564;2024-01-10T06:35:33;96.82;;;42.35;;
23472;SDS011;11909;52.516;13.564;2024-01-10T06:38:01;98.55;;;42.17;;
23472;SDS011;11909;52.516;13.564;2024-01-10T06:40:30;89.82;;;39.67;;
23472;SDS011;11909;52.516;13.564;2024-01-10T06:42:58;97.07;;;41.60;;
23472;SDS011;11909;52.516;13.564;2024-01-10T06:45:27;93.05;;;42.00;;
23472;SDS011;11909;52.516;13.564;2024-01-10T06:47:55;92.38;;;42.72;;
23472;SDS011;11909;52.516;13.564;2024-01-10T06:50:23;95.65;;;41.65;;
23472;SDS011;11909;52.516;13.564;2024-01-10T06:52:52;97.10;;;42.13;;
23472;SDS011;11909;52.516;13.564;2024-01-10T06:55:19;91.93;;;41.35;;
23472;SDS011;11909;52.516;13.564;2024-01-10T06:57:48;90.93;;;40.00;;
23472;SDS011;11909;52.516;13.564;2024-01-10T07:00:19;96.05;;;42.55;;
23472;SDS011;11909;52.516;13.564;2024-01-10T07:02:49;93.18;;;39.70;;
23472;SDS011;11909;52.516;13.564;2024-01-10T07:05:18;96.53;;;41.90;;
23472;SDS011;11909;52.516;13.564;2024-01-10T07:07:46;92.38;;;40.10;;
23472;SDS011;11909;52.516;13.564;2024-01-10T07:10:16;78.95;;;33.65;;
23472;SDS011;11909;52.516;13.564;2024-01-10T07:12:43;91.32;;;40.72;;
23472;SDS011;11909;52.516;13.564;2024-01-10T07:15:12;93.35;;;41.58;;
23472;SDS011;11909;52.516;13.564;2024-01-10T07:17:39;90.68;;;41.50;;
23472;SDS011;11909;52.516;13.564;2024-01-10T07:20:09;97.53;;;41.75;;
23472;SDS011;11909;52.516;13.564;2024-01-10T07:22:39;105.70;;;43.08;;
23472;SDS011;11909;52.516;13.564;2024-01-10T07:25:07;96.10;;;42.83;;
23472;SDS011;11909;52.516;13.564;2024-01-10T07:27:35;99.18;;;40.63;;
23472;SDS011;11909;52.516;13.564;2024-01-10T07:30:05;97.57;;;41.38;;
23472;SDS011;11909;52.516;13.564;2024-01-10T07:32:39;99.22;;;41.38;;
23472;SDS011;11909;52.516;13.564;2024-01-10T07:35:10;94.03;;;42.63;;
23472;SDS011;11909;52.516;13.564;2024-01-10T07:37:38;94.18;;;42.70;;
23472;SDS011;11909;52.516;13.564;2024-01-10T07:40:07;98.78;;;41.67;;
23472;SDS011;11909;52.516;13.564;2024-01-10T07:42:37;103.88;;;44.67;;
23472;SDS011;11909;52.516;13.564;2024-01-10T07:45:06;102.53;;;42.33;;
23472;SDS011;11909;52.516;13.564;2024-01-10T07:47:35;97.45;;;42.90;;
23472;SDS011;11909;52.516;13.564;2024-01-10T07:50:04;96.47;;;43.42;;
23472;SDS011;11909;52.516;13.564;2024-01-10T07:52:34;97.63;;;42.92;;
23472;SDS011;11909;52.516;13.564;2024-01-10T07:55:02;74.93;;;33.57;;
23472;SDS011;11909;52.516;13.564;2024-01-10T07:57:33;110.13;;;43.92;;
23472;SDS011;11909;52.516;13.564;2024-01-10T08:00:01;97.45;;;43.03;;
23472;SDS011;11909;52.516;13.564;2024-01-10T08:02:30;138.82;;;44.10;;
23472;SDS011;11909;52.516;13.564;2024-01-10T08:05:00;100.40;;;43.67;;
23472;SDS011;11909;52.516;13.564;2024-01-10T08:07:31;97.32;;;40.90;;
23472;SDS011;11909;52.516;13.564;2024-01-10T08:10:01;90.93;;;40.97;;
23472;SDS011;11909;52.516;13.564;2024-01-10T08:12:29;93.47;;;41.40;;
23472;SDS011;11909;52.516;13.564;2024-01-10T08:14:57;113.50;;;43.97;;
23472;SDS011;11909;52.516;13.564;2024-01-10T08:17:25;98.93;;;43.13;;
23472;SDS011;11909;52.516;13.564;2024-01-10T08:19:53;97.20;;;41.75;;
23472;SDS011;11909;52.516;13.564;2024-01-10T08:22:21;100.72;;;44.33;;
23472;SDS011;11909;52.516;13.564;2024-01-10T08:24:52;99.82;;;42.13;;
23472;SDS011;11909;52.516;13.564;2024-01-10T08:27:22;98.55;;;42.05;;
23472;SDS011;11909;52.516;13.564;2024-01-10T08:29:50;91.07;;;41.30;;
23472;SDS011;11909;52.516;13.564;2024-01-10T08:32:18;100.10;;;41.30;;
23472;SDS011;11909;52.516;13.564;2024-01-10T08:34:48;95.35;;;43.03;;
23472;SDS011;11909;52.516;13.564;2024-01-10T08:37:16;100.70;;;44.70;;
23472;SDS011;11909;52.516;13.564;2024-01-10T08:39:44;93.95;;;40.67;;
23472;SDS011;11909;52.516;13.564;2024-01-10T08:42:12;97.60;;;43.50;;
23472;SDS011;11909;52.516;13.564;2024-01-10T08:44:41;95.72;;;43.47;;
23472;SDS011;11909;52.516;13.564;2024-01-10T08:47:09;75.67;;;32.07;;
23472;SDS011;11909;52.516;13.564;2024-01-10T08:49:37;103.00;;;45.30;;
23472;SDS011;11909;52.516;13.564;2024-01-10T08:52:05;106.28;;;47.28;;
23472;SDS011;11909;52.516;13.564;2024-01-10T08:54:35;105.30;;;46.00;;
23472;SDS011;11909;52.516;13.564;2024-01-10T08:57:04;85.72;;;35.00;;
23472;SDS011;11909;52.516;13.564;2024-01-10T08:59:32;96.50;;;43.63;;
23472;SDS011;11909;52.516;13.564;2024-01-10T09:02:01;104.40;;;46.33;;
23472;SDS011;11909;52.516;13.564;2024-01-10T09:04:29;102.68;;;44.10;;
23472;SDS011;11909;52.516;13.564;2024-01-10T09:07:01;109.20;;;46.88;;
23472;SDS011;11909;52.516;13.564;2024-01-10T09:09:27;109.90;;;48.80;;
23472;SDS011;11909;52.516;13.564;2024-01-10T09:11:55;100.20;;;43.45;;
23472;SDS011;11909;52.516;13.564;2024-01-10T09:14:23;99.43;;;43.22;;
23472;SDS011;11909;52.516;13.564;2024-01-10T09:16:51;93.25;;;44.10;;
23472;SDS011;11909;52.516;13.564;2024-01-10T09:19:21;100.32;;;42.22;;
23472;SDS011;11909;52.516;13.564;2024-01-10T09:21:49;91.05;;;40.80;;
23472;SDS011;11909;52.516;13.564;2024-01-10T09:24:18;101.72;;;43.13;;
23472;SDS011;11909;52.516;13.564;2024-01-10T09:26:54;97.40;;;43.10;;
23472;SDS011;11909;52.516;13.564;2024-01-10T09:29:23;106.53;;;46.78;;
23472;SDS011;11909;52.516;13.564;2024-01-10T09:31:52;101.10;;;42.67;;
23472;SDS011;11909;52.516;13.564;2024-01-10T09:34:22;97.68;;;40.95;;
23472;SDS011;11909;52.516;13.564;2024-01-10T09:36:50;87.63;;;40.35;;
23472;SDS011;11909;52.516;13.564;2024-01-10T09:39:18;91.85;;;40.42;;
23472;SDS011;11909;52.516;13.564;2024-01-10T09:41:47;89.78;;;40.42;;
23472;SDS011;11909;52.516;13.564;2024-01-10T09:44:17;94.75;;;40.70;;
23472;SDS011;11909;52.516;13.564;2024-01-10T09:46:47;100.38;;;41.67;;
23472;SDS011;11909;52.516;13.564;2024-01-10T09:49:18;87.93;;;39.90;;
23472;SDS011;11909;52.516;13.564;2024-01-10T09:51:50;80.80;;;38.22;;
23472;SDS011;11909;52.516;13.564;2024-01-10T09:54:24;90.03;;;39.22;;
23472;SDS011;11909;52.516;13.564;2024-01-10T09:56:54;93.22;;;39.60;;
23472;SDS011;11909;52.516;13.564;2024-01-10T09:59:22;83.15;;;37.95;;
23472;SDS011;11909;52.516;13.564;2024-01-10T10:01:49;82.25;;;38.45;;
23472;SDS011;11909;52.516;13.564;2024-01-10T10:04:19;83.10;;;38.10;;
23472;SDS011;11909;52.516;13.564;2024-01-10T10:06:59;78.63;;;38.17;;
23472;SDS011;11909;52.516;13.564;2024-01-10T10:09:31;59.25;;;26.67;;
23472;SDS011;11909;52.516;13.564;2024-01-10T10:11:58;80.72;;;37.03;;
23472;SDS011;11909;52.516;13.564;2024-01-10T10:14:28;78.90;;;36.53;;
23472;SDS011;11909;52.516;13.564;2024-01-10T10:16:57;75.60;;;36.17;;
23472;SDS011;11909;52.516;13.564;2024-01-10T10:19:41;77.18;;;35.67;;
23472;SDS011;11909;52.516;13.564;2024-01-10T10:22:12;91.00;;;40.63;;
23472;SDS011;11909;52.516;13.564;2024-01-10T10:24:40;82.93;;;37.70;;
23472;SDS011;11909;52.516;13.564;2024-01-10T10:27:11;75.28;;;34.80;;
23472;SDS011;11909;52.516;13.564;2024-01-10T10:29:39;72.88;;;34.90;;
23472;SDS011;11909;52.516;13.564;2024-01-10T10:32:09;79.78;;;36.67;;
23472;SDS011;11909;52.516;13.564;2024-01-10T10:34:37;77.40;;;36.20;;
23472;SDS011;11909;52.516;13.564;2024-01-10T10:37:05;70.60;;;33.35;;
23472;SDS011;11909;52.516;13.564;2024-01-10T10:39:34;68.47;;;33.42;;
23472;SDS011;11909;52.516;13.564;2024-01-10T10:42:04;67.05;;;33.72;;
23472;SDS011;11909;52.516;13.564;2024-01-10T10:44:33;65.65;;;31.95;;
23472;SDS011;11909;52.516;13.564;2024-01-10T10:47:04;67.32;;;31.05;;
23472;SDS011;11909;52.516;13.564;2024-01-10T10:49:41;68.53;;;31.48;;
23472;SDS011;11909;52.516;13.564;2024-01-10T10:52:14;71.88;;;31.58;;
23472;SDS011;11909;52.516;13.564;2024-01-10T10:54:45;69.55;;;32.28;;
23472;SDS011;11909;52.516;13.564;2024-01-10T10:57:15;70.45;;;33.40;;
23472;SDS011;11909;52.516;13.564;2024-01-10T10:59:45;67.30;;;32.55;;
23472;SDS011;11909;52.516;13.564;2024-01-10T11:02:14;63.90;;;29.85;;
23472;SDS011;11909;52.516;13.564;2024-01-10T11:04:53;59.63;;;29.45;;
23472;SDS011;11909;52.516;13.564;2024-01-10T11:07:22;62.97;;;31.95;;
23472;SDS011;11909;52.516;13.564;2024-01-10T11:09:51;63.97;;;29.88;;
23472;SDS011;11909;52.516;13.564;2024-01-10T11:12:24;62.65;;;32.10;;
23472;SDS011;11909;52.516;13.564;2024-01-10T11:15:09;62.22;;;30.42;;
23472;SDS011;11909;52.516;13.564;2024-01-10T11:20:53;60.92;;;29.40;;
23472;SDS011;11909;52.516;13.564;2024-01-10T11:23:38;54.90;;;27.88;;
23472;SDS011;11909;52.516;13.564;2024-01-10T11:26:09;60.20;;;29.88;;
23472;SDS011;11909;52.516;13.564;2024-01-10T11:28:40;62.45;;;29.58;;
23472;SDS011;11909;52.516;13.564;2024-01-10T11:31:08;67.90;;;32.30;;
23472;SDS011;11909;52.516;13.564;2024-01-10T11:33:36;66.55;;;31.70;;
23472;SDS011;11909;52.516;13.564;2024-01-10T11:36:11;63.63;;;31.52;;
23472;SDS011;11909;52.516;13.564;2024-01-10T11:38:41;60.63;;;30.02;;
23472;SDS011;11909;52.516;13.564;2024-01-10T11:41:13;61.22;;;30.98;;
23472;SDS011;11909;52.516;13.564;2024-01-10T11:46:52;58.15;;;29.88;;
23472;SDS011;11909;52.516;13.564;2024-01-10T11:51:52;59.45;;;29.33;;
23472;SDS011;11909;52.516;13.564;2024-01-10T11:54:39;63.80;;;29.90;;
23472;SDS011;11909;52.516;13.564;2024-01-10T11:57:14;62.45;;;29.92;;
23472;SDS011;11909;52.516;13.564;2024-01-10T11:59:47;67.75;;;32.60;;
23472;SDS011;11909;52.516;13.564;2024-01-10T12:02:17;66.53;;;31.17;;
23472;SDS011;11909;52.516;13.564;2024-01-10T12:04:46;62.33;;;29.60;;
23472;SDS011;11909;52.516;13.564;2024-01-10T12:07:15;61.25;;;30.48;;
23472;SDS011;11909;52.516;13.564;2024-01-10T12:12:14;60.58;;;30.98;;
23472;SDS011;11909;52.516;13.564;2024-01-10T12:14:42;63.20;;;30.50;;
23472;SDS011;11909;52.516;13.564;2024-01-10T12:17:12;63.92;;;30.73;;
23472;SDS011;11909;52.516;13.564;2024-01-10T12:19:40;66.03;;;31.38;;
23472;SDS011;11909;52.516;13.564;2024-01-10T12:22:13;63.17;;;32.17;;
23472;SDS011;11909;52.516;13.564;2024-01-10T12:24:43;60.15;;;30.73;;
23472;SDS011;11909;52.516;13.564;2024-01-10T12:27:13;75.65;;;33.95;;
23472;SDS011;11909;52.516;13.564;2024-01-10T12:29:47;73.20;;;33.15;;
23472;SDS011;11909;52.516;13.564;2024-01-10T12:32:17;65.85;;;33.08;;
23472;SDS011;11909;52.516;13.564;2024-01-10T12:34:47;63.65;;;31.45;;
23472;SDS011;11909;52.516;13.564;2024-01-10T12:37:14;61.53;;;31.27;;
23472;SDS011;11909;52.516;13.564;2024-01-10T12:39:42;63.63;;;30.80;;
23472;SDS011;11909;52.516;13.564;2024-01-10T12:42:10;62.47;;;31.08;;
23472;SDS011;11909;52.516;13.564;2024-01-10T12:44:43;51.38;;;28.33;;
23472;SDS011;11909;52.516;13.564;2024-01-10T12:47:17;57.95;;;30.75;;
23472;SDS011;11909;52.516;13.564;2024-01-10T12:49:46;58.92;;;30.23;;
23472;SDS011;11909;52.516;13.564;2024-01-10T12:52:14;56.03;;;28.80;;
23472;SDS011;11909;52.516;13.564;2024-01-10T12:54:47;53.67;;;29.70;;
23472;SDS011;11909;52.516;13.564;2024-01-10T12:57:15;61.58;;;30.52;;
23472;SDS011;11909;52.516;13.564;2024-01-10T12:59:45;50.85;;;26.90;;
23472;SDS011;11909;52.516;13.564;2024-01-10T13:02:12;55.13;;;27.52;;
23472;SDS011;11909;52.516;13.564;2024-01-10T13:04:40;52.97;;;26.52;;
23472;SDS011;11909;52.516;13.564;2024-01-10T13:07:08;54.58;;;27.42;;
23472;SDS011;11909;52.516;13.564;2024-01-10T13:09:36;52.45;;;26.83;;
23472;SDS011;11909;52.516;13.564;2024-01-10T13:12:04;48.42;;;25.35;;
23472;SDS011;11909;52.516;13.564;2024-01-10T13:14:34;50.83;;;24.65;;
23472;SDS011;11909;52.516;13.564;2024-01-10T13:17:03;53.22;;;24.65;;
23472;SDS011;11909;52.516;13.564;2024-01-10T13:19:31;49.83;;;25.63;;
23472;SDS011;11909;52.516;13.564;2024-01-10T13:21:59;48.92;;;25.65;;
23472;SDS011;11909;52.516;13.564;2024-01-10T13:24:30;48.58;;;24.92;;
23472;SDS011;11909;52.516;13.564;2024-01-10T13:26:58;44.63;;;24.98;;
23472;SDS011;11909;52.516;13.564;2024-01-10T13:29:26;46.17;;;24.20;;
23472;SDS011;11909;52.516;13.564;2024-01-10T13:31:54;46.83;;;24.98;;
23472;SDS011;11909;52.516;13.564;2024-01-10T13:34:23;44.50;;;22.92;;
23472;SDS011;11909;52.516;13.564;2024-01-10T13:36:51;42.65;;;22.17;;
23472;SDS011;11909;52.516;13.564;2024-01-10T13:39:19;44.22;;;22.00;;
23472;SDS011;11909;52.516;13.564;2024-01-10T13:41:47;42.22;;;22.13;;
23472;SDS011;11909;52.516;13.564;2024-01-10T13:44:15;44.20;;;22.15;;
23472;SDS011;11909;52.516;13.564;2024-01-10T13:46:43;42.95;;;21.58;;
23472;SDS011;11909;52.516;13.564;2024-01-10T13:49:10;35.70;;;18.65;;
23472;SDS011;11909;52.516;13.564;2024-01-10T13:51:40;44.65;;;20.40;;
23472;SDS011;11909;52.516;13.564;2024-01-10T13:54:09;35.63;;;19.20;;
23472;SDS011;11909;52.516;13.564;2024-01-10T13:56:37;36.47;;;18.70;;
23472;SDS011;11909;52.516;13.564;2024-01-10T13:59:06;40.75;;;20.88;;
23472;SDS011;11909;52.516;13.564;2024-01-10T14:01:34;33.55;;;18.27;;
23472;SDS011;11909;52.516;13.564;2024-01-10T14:04:03;37.80;;;19.05;;
23472;SDS011;11909;52.516;13.564;2024-01-10T14:06:31;35.03;;;17.20;;
23472;SDS011;11909;52.516;13.564;2024-01-10T14:09:00;35.63;;;16.77;;
23472;SDS011;11909;52.516;13.564;2024-01-10T14:11:28;38.57;;;17.53;;
23472;SDS011;11909;52.516;13.564;2024-01-10T14:13:56;31.50;;;16.42;;
23472;SDS011;11909;52.516;13.564;2024-01-10T14:16:24;33.25;;;17.40;;
23472;SDS011;11909;52.516;13.564;2024-01-10T14:18:54;31.45;;;16.52;;
23472;SDS011;11909;52.516;13.564;2024-01-10T14:21:22;31.95;;;15.50;;
23472;SDS011;11909;52.516;13.564;2024-01-10T14:23:50;31.88;;;15.60;;
23472;SDS011;11909;52.516;13.564;2024-01-10T14:26:20;32.60;;;15.88;;
23472;SDS011;11909;52.516;13.564;2024-01-10T14:28:47;32.33;;;16.52;;
23472;SDS011;11909;52.516;13.564;2024-01-10T14:31:19;33.33;;;16.33;;
23472;SDS011;11909;52.516;13.564;2024-01-10T14:34:03;30.35;;;15.70;;